Stans, Switzerland
Current Conditions -  °F | °C
As of 4:50 PM on Sunday 25 Jan 2015 (Local Time) from LSZC Reporting Station
Scattered Clouds Scattered Clouds  
Wind Chill: 32°   Ceiling: Unl
Heat Index: 32°   Visibility: 6mi
Dew Point: 25°   Wind: 2mph
Humidity: 75%   Direction: NA
Pressure: 30.36"   Gusts: NA
Location:  46.96°N, 8.35°E
Report Text: LSZC 251550Z AUTO VRB02KT 9999 FEW050 SCT220 00/M04 Q1028
Loading
Personal Weather Stations






























Interactive Weather Map New forecast layout! Learn more

10-Day Weather Forecast

Advertisements
Track Severe Weather on mobile